createdAt,value
2023-08-20T00:01:32.173Z,10.97
2023-08-20T00:03:59.922Z,8.33
2023-08-20T00:06:30.817Z,7.97
2023-08-20T00:08:58.076Z,9.03
2023-08-20T00:13:52.441Z,12.68
2023-08-20T00:16:20.051Z,9.25
2023-08-20T00:18:47.660Z,8.00
2023-08-20T00:21:16.050Z,10.07
2023-08-20T00:23:43.667Z,11.37
2023-08-20T00:26:11.642Z,10.53
2023-08-20T00:28:40.061Z,10.37
2023-08-20T00:31:07.426Z,12.23
2023-08-20T00:33:34.619Z,9.10
2023-08-20T00:36:02.192Z,13.20
2023-08-20T00:38:29.355Z,11.73
2023-08-20T00:40:56.568Z,13.17
2023-08-20T00:43:23.813Z,9.30
2023-08-20T00:45:51.375Z,11.20
2023-08-20T00:48:18.940Z,8.43
2023-08-20T00:50:46.729Z,7.90
2023-08-20T00:53:15.532Z,7.33
2023-08-20T00:55:45.030Z,8.53
2023-08-20T00:58:13.306Z,9.37
2023-08-20T01:00:40.581Z,9.23
2023-08-20T01:03:07.848Z,11.67
2023-08-20T01:05:45.270Z,8.17
2023-08-20T01:08:38.479Z,9.37
2023-08-20T01:11:14.236Z,10.67
2023-08-20T01:13:41.392Z,9.50
2023-08-20T01:16:08.834Z,10.23
2023-08-20T01:18:36.224Z,9.63
2023-08-20T01:21:25.390Z,12.30
2023-08-20T01:24:35.691Z,9.57
2023-08-20T01:27:48.010Z,8.13
2023-08-20T01:30:16.814Z,9.50
2023-08-20T01:32:45.061Z,8.80
2023-08-20T01:35:15.623Z,7.50
2023-08-20T01:37:42.845Z,9.53
2023-08-20T01:40:14.011Z,9.53
2023-08-20T01:42:41.710Z,6.60
2023-08-20T01:45:09.655Z,10.63
2023-08-20T01:47:37.255Z,6.53
2023-08-20T01:50:07.315Z,8.53
2023-08-20T01:52:36.203Z,10.00
2023-08-20T01:55:03.560Z,8.67
2023-08-20T01:57:30.820Z,9.23
2023-08-20T01:59:59.152Z,8.03
2023-08-20T02:02:26.433Z,7.27
2023-08-20T02:04:53.746Z,11.10
2023-08-20T02:07:20.968Z,8.90
2023-08-20T02:09:48.125Z,9.10
2023-08-20T02:12:15.536Z,9.17
2023-08-20T02:14:45.137Z,10.13
2023-08-20T02:17:13.541Z,7.87
2023-08-20T02:19:40.777Z,9.57
2023-08-20T02:22:08.921Z,10.40
2023-08-20T02:24:36.322Z,7.33
2023-08-20T02:27:04.283Z,10.37
2023-08-20T02:29:33.638Z,8.17
2023-08-20T02:32:00.927Z,8.83
2023-08-20T02:34:28.358Z,8.80
2023-08-20T02:36:55.736Z,7.10
2023-08-20T02:39:23.220Z,10.70
2023-08-20T02:41:50.502Z,10.27
2023-08-20T02:44:17.716Z,10.40
2023-08-20T02:46:46.242Z,11.57
2023-08-20T02:49:13.728Z,10.83
2023-08-20T02:51:42.867Z,10.57
2023-08-20T02:54:10.072Z,10.30
2023-08-20T02:56:37.192Z,10.00
2023-08-20T02:59:04.955Z,12.50
2023-08-20T03:01:32.146Z,8.67
2023-08-20T03:03:59.372Z,13.10
2023-08-20T03:06:26.686Z,12.33
2023-08-20T03:08:53.946Z,9.33
2023-08-20T03:11:21.284Z,11.93
2023-08-20T03:13:48.519Z,10.17
2023-08-20T03:16:15.720Z,11.03
2023-08-20T03:18:43.064Z,13.53
2023-08-20T03:21:10.422Z,8.90
2023-08-20T03:23:37.937Z,8.70
2023-08-20T03:26:05.255Z,11.60
2023-08-20T03:28:32.516Z,14.27
2023-08-20T03:31:03.338Z,14.97
2023-08-20T03:33:30.901Z,12.07
2023-08-20T03:36:00.328Z,13.63
2023-08-20T03:38:27.893Z,12.37
2023-08-20T03:40:57.410Z,11.60
2023-08-20T03:43:24.565Z,13.33
2023-08-20T03:45:53.206Z,14.50
2023-08-20T03:48:21.860Z,14.73
2023-08-20T03:50:49.191Z,11.10
2023-08-20T03:53:16.802Z,13.00
2023-08-20T03:55:52.558Z,14.03
2023-08-20T03:58:19.830Z,14.27
2023-08-20T04:00:47.426Z,14.07
2023-08-20T04:03:15.444Z,13.07
2023-08-20T04:05:46.373Z,11.87
2023-08-20T04:08:13.678Z,13.20
2023-08-20T04:10:46.713Z,16.53
2023-08-20T04:13:15.705Z,15.87
2023-08-20T04:15:42.954Z,14.23
2023-08-20T04:18:10.142Z,13.13
2023-08-20T04:20:41.164Z,13.73
2023-08-20T04:23:08.311Z,10.90
2023-08-20T04:25:36.849Z,16.47
2023-08-20T04:28:04.506Z,14.00
2023-08-20T04:30:31.659Z,13.13
2023-08-20T04:32:59.463Z,11.50
2023-08-20T04:35:29.101Z,15.83
2023-08-20T04:37:56.443Z,11.17
2023-08-20T04:40:24.031Z,17.37
2023-08-20T04:42:53.188Z,13.73
2023-08-20T04:45:21.187Z,14.97
2023-08-20T04:47:48.701Z,13.67
2023-08-20T04:50:17.640Z,15.90
2023-08-20T04:52:45.906Z,12.17
2023-08-20T04:55:13.465Z,10.50
2023-08-20T04:57:40.677Z,12.33
2023-08-20T05:00:09.196Z,12.50
2023-08-20T05:02:36.746Z,10.33
2023-08-20T05:05:05.162Z,9.10
2023-08-20T05:07:32.428Z,11.57
2023-08-20T05:09:59.643Z,11.57
2023-08-20T05:12:26.840Z,12.00
2023-08-20T05:14:54.017Z,13.03
2023-08-20T05:17:21.463Z,11.67
2023-08-20T05:19:48.787Z,11.77
2023-08-20T05:22:15.900Z,9.93
2023-08-20T05:24:46.314Z,11.47
2023-08-20T05:27:20.525Z,13.93
2023-08-20T05:29:47.953Z,11.63
2023-08-20T05:32:25.624Z,13.70
2023-08-20T05:34:53.217Z,7.93
2023-08-20T05:37:20.464Z,10.20
2023-08-20T05:42:17.701Z,11.20
2023-08-20T05:44:45.296Z,8.32
2023-08-20T05:47:12.968Z,6.60
2023-08-20T05:49:40.151Z,6.45
2023-08-20T05:52:07.546Z,8.57
2023-08-20T05:54:34.636Z,8.95
2023-08-20T05:57:02.915Z,8.55
2023-08-20T05:59:30.592Z,8.40
2023-08-20T06:01:57.869Z,10.45
2023-08-20T06:04:25.067Z,12.55
2023-08-20T06:06:52.338Z,9.65
2023-08-20T06:09:19.687Z,9.40
2023-08-20T06:11:46.993Z,8.88
2023-08-20T06:14:14.360Z,11.88
2023-08-20T06:16:41.690Z,10.27
2023-08-20T06:19:10.344Z,9.10
2023-08-20T06:21:37.698Z,11.45
2023-08-20T06:24:05.551Z,9.82
2023-08-20T06:26:32.772Z,8.50
2023-08-20T06:29:00.360Z,10.65
2023-08-20T06:31:27.796Z,9.70
2023-08-20T06:41:21.691Z,11.90
2023-08-20T06:43:48.963Z,9.55
2023-08-20T06:46:17.055Z,9.82
2023-08-20T06:48:44.181Z,9.35
2023-08-20T06:51:16.459Z,8.38
2023-08-20T06:53:43.889Z,12.05
2023-08-20T06:56:14.452Z,11.15
2023-08-20T06:58:43.280Z,10.15
2023-08-20T07:01:10.873Z,10.70
2023-08-20T07:03:44.660Z,11.05
2023-08-20T07:06:12.727Z,8.63
2023-08-20T07:08:40.680Z,10.32
2023-08-20T07:11:08.803Z,9.52
2023-08-20T07:13:36.003Z,9.00
2023-08-20T07:18:31.630Z,8.57
2023-08-20T07:20:59.029Z,9.23
2023-08-20T07:23:27.338Z,12.10
2023-08-20T07:26:10.497Z,11.25
2023-08-20T07:28:56.570Z,12.00
2023-08-20T07:31:34.527Z,9.73
2023-08-20T07:34:06.103Z,14.13
2023-08-20T07:36:34.340Z,13.95
2023-08-20T07:39:03.235Z,13.98
2023-08-20T07:41:30.719Z,13.95
2023-08-20T07:43:58.113Z,10.88
2023-08-20T07:46:25.375Z,12.63
2023-08-20T07:48:52.613Z,11.73
2023-08-20T07:51:20.028Z,15.38
2023-08-20T07:53:47.289Z,15.02
2023-08-20T07:56:14.931Z,12.98
2023-08-20T07:58:42.027Z,11.32
2023-08-20T08:01:09.283Z,12.95
2023-08-20T08:03:36.574Z,13.38
2023-08-20T08:06:04.058Z,16.73
2023-08-20T08:08:31.267Z,14.10
2023-08-20T08:10:58.564Z,15.57
2023-08-20T08:13:27.011Z,16.05
2023-08-20T08:15:54.380Z,15.15
2023-08-20T08:18:25.896Z,14.48
2023-08-20T08:20:53.045Z,13.60
2023-08-20T08:23:20.636Z,16.23
2023-08-20T08:25:47.832Z,14.93
2023-08-20T08:28:15.041Z,14.57
2023-08-20T08:30:42.307Z,13.27
2023-08-20T08:33:09.568Z,15.93
2023-08-20T08:35:37.059Z,14.85
2023-08-20T08:38:04.786Z,13.77
2023-08-20T08:40:32.298Z,16.33
2023-08-20T08:42:59.570Z,12.98
2023-08-20T08:45:28.898Z,14.70
2023-08-20T08:47:56.701Z,13.15
2023-08-20T08:50:24.172Z,14.05
2023-08-20T08:52:56.143Z,14.93
2023-08-20T08:55:23.594Z,16.40
2023-08-20T08:57:50.852Z,14.23
2023-08-20T09:00:18.192Z,16.45
2023-08-20T09:02:45.363Z,15.65
2023-08-20T09:05:15.733Z,14.27
2023-08-20T09:07:45.975Z,12.57
2023-08-20T09:10:13.258Z,14.45
2023-08-20T09:12:40.921Z,15.13
2023-08-20T09:20:07.623Z,12.77
2023-08-20T09:22:38.111Z,15.77
2023-08-20T09:25:05.954Z,18.67
2023-08-20T09:27:43.552Z,13.88
2023-08-20T09:30:11.667Z,15.18
2023-08-20T09:32:39.368Z,13.70
2023-08-20T09:35:07.893Z,12.80
2023-08-20T09:37:35.712Z,11.48
2023-08-20T09:40:04.043Z,12.30
2023-08-20T09:42:34.226Z,12.25
2023-08-20T09:45:05.762Z,10.93
2023-08-20T09:47:40.013Z,10.88
2023-08-20T09:50:12.188Z,10.65
2023-08-20T09:53:02.619Z,10.98
2023-08-20T09:55:37.348Z,11.45
2023-08-20T09:58:05.761Z,10.63
2023-08-20T10:00:34.174Z,10.43
2023-08-20T10:03:01.663Z,11.07
2023-08-20T10:05:29.340Z,11.20
2023-08-20T10:07:57.368Z,11.30
2023-08-20T10:10:24.765Z,11.73
2023-08-20T10:12:52.112Z,9.07
2023-08-20T10:15:19.450Z,9.30
2023-08-20T10:17:47.681Z,8.35
2023-08-20T10:20:18.664Z,11.32
2023-08-20T10:22:46.992Z,11.13
2023-08-20T10:25:25.789Z,8.50
2023-08-20T10:27:54.715Z,8.50
2023-08-20T10:30:27.143Z,7.75
2023-08-20T10:43:27.257Z,6.45
2023-08-20T10:48:41.128Z,5.65
2023-08-20T10:51:19.796Z,6.78
2023-08-20T10:54:02.052Z,5.57
2023-08-20T10:59:34.219Z,6.90
2023-08-20T11:02:02.398Z,4.10
2023-08-20T11:04:33.926Z,3.80
2023-08-20T11:07:02.047Z,5.18
2023-08-20T11:09:31.123Z,7.22
2023-08-20T11:11:59.347Z,5.72
2023-08-20T11:14:26.920Z,5.45
2023-08-20T11:16:54.232Z,3.97
2023-08-20T11:19:23.947Z,5.20
2023-08-20T11:21:52.336Z,6.43
2023-08-20T11:24:21.071Z,6.30
2023-08-20T11:26:48.678Z,5.72
2023-08-20T11:29:22.206Z,4.43
2023-08-20T11:31:51.042Z,4.50
2023-08-20T11:34:20.448Z,6.50
2023-08-20T11:36:49.239Z,4.90
2023-08-20T11:39:16.880Z,5.85
2023-08-20T11:41:45.603Z,4.40
2023-08-20T11:44:21.997Z,3.42
2023-08-20T11:46:49.883Z,4.38
2023-08-20T11:49:17.379Z,3.92
2023-08-20T11:51:50.862Z,6.18
2023-08-20T11:59:22.527Z,4.40
2023-08-20T12:02:08.248Z,4.93
2023-08-20T12:04:35.443Z,4.30
2023-08-20T12:07:15.819Z,5.10
2023-08-20T12:09:43.555Z,4.60
2023-08-20T12:12:11.185Z,5.22
2023-08-20T12:14:39.034Z,3.60
2023-08-20T12:17:06.184Z,3.53
2023-08-20T12:19:33.257Z,5.13
2023-08-20T12:22:00.415Z,5.03
2023-08-20T12:24:27.664Z,5.85
2023-08-20T12:26:55.267Z,3.92
2023-08-20T12:29:22.486Z,2.97
2023-08-20T12:31:49.539Z,5.03
2023-08-20T12:34:16.710Z,3.22
2023-08-20T12:36:44.151Z,2.78
2023-08-20T12:39:11.225Z,5.03
2023-08-20T12:41:38.398Z,4.63
2023-08-20T12:44:06.457Z,5.03
2023-08-20T12:46:33.658Z,3.25
2023-08-20T12:49:00.906Z,4.28
2023-08-20T12:51:28.897Z,5.63
2023-08-20T12:53:56.088Z,5.00
2023-08-20T12:56:23.227Z,5.15
2023-08-20T12:58:50.394Z,3.92
2023-08-20T13:01:18.298Z,4.75
2023-08-20T13:03:46.100Z,3.28
2023-08-20T13:06:13.842Z,5.20
2023-08-20T13:08:43.164Z,2.85
2023-08-20T13:11:15.442Z,4.85
2023-08-20T13:13:43.073Z,4.20
2023-08-20T13:16:11.077Z,4.93
2023-08-20T13:18:38.926Z,4.60
2023-08-20T13:21:05.998Z,4.15
2023-08-20T13:23:33.264Z,4.30
2023-08-20T13:26:00.414Z,4.45
2023-08-20T13:28:27.490Z,3.78
2023-08-20T13:30:54.589Z,5.32
2023-08-20T13:33:24.441Z,3.17
2023-08-20T13:35:53.212Z,3.42
2023-08-20T13:38:22.543Z,5.20
2023-08-20T13:40:50.068Z,4.20
2023-08-20T13:45:52.351Z,4.35
2023-08-20T13:48:19.607Z,2.55
2023-08-20T13:50:46.757Z,4.13
2023-08-20T13:53:14.028Z,3.65
2023-08-20T13:55:41.181Z,3.38
2023-08-20T13:58:10.472Z,3.83
2023-08-20T14:00:38.027Z,4.95
2023-08-20T14:03:05.913Z,3.47
2023-08-20T14:05:33.482Z,3.33
2023-08-20T14:08:00.670Z,4.38
2023-08-20T14:10:27.848Z,3.10
2023-08-20T14:12:54.984Z,4.18
2023-08-20T14:15:22.322Z,5.65
2023-08-20T14:17:49.764Z,3.70
2023-08-20T14:20:17.025Z,4.53
2023-08-20T14:22:44.344Z,4.78
2023-08-20T14:25:14.644Z,3.72
2023-08-20T14:27:41.880Z,3.40
2023-08-20T14:30:09.878Z,4.07
2023-08-20T14:32:40.615Z,3.28
2023-08-20T14:35:09.396Z,3.85
2023-08-20T14:37:39.737Z,3.70
2023-08-20T14:40:08.197Z,3.33
2023-08-20T14:42:36.008Z,1.75
2023-08-20T14:45:06.795Z,3.30
2023-08-20T14:47:39.610Z,1.73
2023-08-20T14:50:10.410Z,2.85
2023-08-20T14:52:40.786Z,4.78
2023-08-20T14:55:10.992Z,2.75
2023-08-20T14:57:50.714Z,3.85
2023-08-20T15:00:19.902Z,3.92
2023-08-20T15:02:48.453Z,3.97
2023-08-20T15:05:16.073Z,2.33
2023-08-20T15:07:43.327Z,2.72
2023-08-20T15:10:11.167Z,4.25
2023-08-20T15:12:38.844Z,3.28
2023-08-20T15:15:07.445Z,4.13
2023-08-20T15:17:34.942Z,5.47
2023-08-20T15:20:03.273Z,2.78
2023-08-20T15:22:30.502Z,2.97
2023-08-20T15:24:57.799Z,2.85
2023-08-20T15:27:26.993Z,2.25
2023-08-20T15:29:54.206Z,2.60
2023-08-20T15:32:22.320Z,3.90
2023-08-20T15:34:49.808Z,2.97
2023-08-20T15:37:20.135Z,2.40
2023-08-20T15:39:47.410Z,2.03
2023-08-20T15:42:14.584Z,1.38
2023-08-20T15:44:42.115Z,3.95
2023-08-20T15:47:10.026Z,3.15
2023-08-20T15:49:37.236Z,3.03
2023-08-20T15:52:04.874Z,2.40
2023-08-20T15:54:32.084Z,2.38
2023-08-20T15:56:59.191Z,2.38
2023-08-20T15:59:26.427Z,3.83
2023-08-20T16:01:53.718Z,1.95
2023-08-20T16:04:20.883Z,2.08
2023-08-20T16:06:48.059Z,3.20
2023-08-20T16:09:15.237Z,1.67
2023-08-20T16:11:42.277Z,3.20
2023-08-20T16:14:09.430Z,3.60
2023-08-20T16:33:47.198Z,2.72
2023-08-20T16:36:14.478Z,1.55
2023-08-20T16:38:41.598Z,3.75
2023-08-20T16:41:08.765Z,2.13
2023-08-20T16:43:36.078Z,3.20
2023-08-20T16:46:03.550Z,2.53
2023-08-20T16:48:34.057Z,3.30
2023-08-20T16:51:01.761Z,4.03
2023-08-20T16:53:29.835Z,2.67
2023-08-20T16:55:57.508Z,2.45
2023-08-20T16:58:24.757Z,4.15
2023-08-20T17:00:52.008Z,3.22
2023-08-20T17:03:19.279Z,2.63
2023-08-20T17:05:46.566Z,3.35
2023-08-20T17:08:13.984Z,2.47
2023-08-20T17:10:41.657Z,1.88
2023-08-20T17:13:09.122Z,4.85
2023-08-20T17:15:39.969Z,2.33
2023-08-20T17:18:13.329Z,2.15
2023-08-20T17:20:40.443Z,3.60
2023-08-20T17:23:07.517Z,3.50
2023-08-20T17:25:34.952Z,3.97
2023-08-20T17:28:04.131Z,2.28
2023-08-20T17:30:31.866Z,3.03
2023-08-20T17:32:59.047Z,3.53
2023-08-20T17:35:27.190Z,3.08
2023-08-20T17:37:54.235Z,3.17
2023-08-20T17:40:21.524Z,3.33
2023-08-20T17:42:48.654Z,4.45
2023-08-20T17:45:15.860Z,3.00
2023-08-20T17:47:43.064Z,3.40
2023-08-20T17:50:10.449Z,3.80
2023-08-20T17:52:38.161Z,2.03
2023-08-20T17:55:06.085Z,2.53
2023-08-20T17:57:36.733Z,5.88
2023-08-20T18:00:13.718Z,3.90
2023-08-20T18:02:41.350Z,2.55
2023-08-20T18:05:11.465Z,3.88
2023-08-20T18:07:39.379Z,4.18
2023-08-20T18:12:37.333Z,3.63
2023-08-20T18:15:06.280Z,3.50
2023-08-20T18:17:34.122Z,3.20
2023-08-20T18:20:01.325Z,4.50
2023-08-20T18:22:34.040Z,4.15
2023-08-20T18:25:01.153Z,6.38
2023-08-20T18:27:28.325Z,4.57
2023-08-20T18:29:58.605Z,3.17
2023-08-20T18:32:25.787Z,7.60
2023-08-20T18:34:53.646Z,8.05
2023-08-20T18:37:20.865Z,9.40
2023-08-20T18:39:48.285Z,5.72
2023-08-20T18:42:15.606Z,4.13
2023-08-20T18:44:42.849Z,7.68
2023-08-20T18:47:09.955Z,6.22
2023-08-20T18:49:37.884Z,3.33
2023-08-20T18:52:06.635Z,3.97
2023-08-20T18:54:33.780Z,5.55
2023-08-20T18:59:31.763Z,4.87
2023-08-20T19:01:58.903Z,6.15
2023-08-20T19:04:26.288Z,6.30
2023-08-20T19:06:56.605Z,6.20
2023-08-20T19:09:23.762Z,4.65
2023-08-20T19:11:55.308Z,3.30
2023-08-20T19:14:22.525Z,6.15
2023-08-20T19:16:52.424Z,2.95
2023-08-20T19:19:19.522Z,5.55
2023-08-20T19:24:37.430Z,5.18
2023-08-20T19:27:06.079Z,5.95
2023-08-20T19:29:33.184Z,5.53
2023-08-20T19:32:00.383Z,5.03
2023-08-20T19:34:27.478Z,6.25
2023-08-20T19:36:54.806Z,4.60
2023-08-20T19:39:22.079Z,5.53
2023-08-20T19:41:49.373Z,8.07
2023-08-20T19:44:16.572Z,6.78
2023-08-20T19:46:43.713Z,5.88
2023-08-20T19:49:11.739Z,3.53
2023-08-20T19:51:41.860Z,5.43
2023-08-20T19:54:11.612Z,7.50
2023-08-20T19:56:42.135Z,6.03
2023-08-20T19:59:12.311Z,3.55
2023-08-20T20:01:54.965Z,4.05
2023-08-20T20:04:25.522Z,6.07
2023-08-20T20:07:01.299Z,7.32
2023-08-20T20:09:39.372Z,3.03
2023-08-20T20:12:09.125Z,7.47
2023-08-20T20:14:36.455Z,4.97
2023-08-20T20:17:04.634Z,4.93
2023-08-20T20:19:38.100Z,5.67
2023-08-20T20:22:05.775Z,5.10
2023-08-20T20:24:35.638Z,4.93
2023-08-20T20:27:02.744Z,4.65
2023-08-20T20:29:30.284Z,5.32
2023-08-20T20:31:57.512Z,4.80
2023-08-20T20:34:27.510Z,5.72
2023-08-20T20:36:54.830Z,3.95
2023-08-20T20:39:22.177Z,5.93
2023-08-20T20:44:16.403Z,4.03
2023-08-20T20:46:43.750Z,4.65
2023-08-20T20:49:10.965Z,4.40
2023-08-20T20:51:38.534Z,6.18
2023-08-20T20:54:06.324Z,3.67
2023-08-20T21:23:44.815Z,5.20
2023-08-20T21:26:12.510Z,5.63
2023-08-20T21:28:46.330Z,4.10
2023-08-20T21:31:14.700Z,7.63
2023-08-20T21:33:42.318Z,5.35
2023-08-20T21:36:09.622Z,5.93
2023-08-20T21:38:37.144Z,7.95
2023-08-20T21:41:04.306Z,6.57
2023-08-20T21:43:31.574Z,5.77
2023-08-20T21:45:58.884Z,7.18
2023-08-20T21:48:26.008Z,5.50
2023-08-20T22:48:09.998Z,6.43
2023-08-20T22:50:43.353Z,5.43
2023-08-20T22:53:10.788Z,5.77
2023-08-20T22:55:40.185Z,5.93
2023-08-20T22:58:07.581Z,12.93
2023-08-20T23:00:35.099Z,5.43
2023-08-20T23:03:02.527Z,6.60
2023-08-20T23:05:29.837Z,7.20
2023-08-20T23:08:00.031Z,5.10
2023-08-20T23:10:33.085Z,6.20
2023-08-20T23:13:00.358Z,3.60
2023-08-20T23:15:29.443Z,6.63
2023-08-20T23:17:59.472Z,8.23
2023-08-20T23:20:26.608Z,4.77
2023-08-20T23:22:56.810Z,4.50
2023-08-20T23:25:24.016Z,3.53
2023-08-20T23:27:53.434Z,5.33
2023-08-20T23:30:20.599Z,5.67
2023-08-20T23:32:54.890Z,3.33
2023-08-20T23:35:22.248Z,4.33
2023-08-20T23:37:49.347Z,4.00
2023-08-20T23:40:16.551Z,4.03
2023-08-20T23:42:46.640Z,5.73
2023-08-20T23:45:13.984Z,4.13
2023-08-20T23:47:41.305Z,4.80
2023-08-20T23:50:09.747Z,3.60
2023-08-20T23:52:37.316Z,3.80
2023-08-20T23:55:09.214Z,3.73
2023-08-20T23:57:36.679Z,5.47
